Terminal Aerodrome Forecast
Issued by NWS Charleston, WV

Current Version | Previous Version | Text Only | Print | Product List | Glossary Off
Versions: 1 2 3 4 5 6 7 8 9 10 11 12 13 14 15 16 17 18 19 20 21 22

646
FTUS41 KRLX 192329
TAFHTS
TAF
KHTS 192329Z 2000/2024 25007KT P6SM SKC
     FM200800 24002KT 2SM BR BKN003
     FM201300 25005KT 6SM BR SCT020
     FM201500 25007KT P6SM FEW050=

USA.gov is the U.S. government's official web portal to all federal, state and local government web resources and services.